Time;durP1;ratioP1;P1;durP2;ratioP2;P2;SDS_P1;SDS_P2;PMS_P1;PMS_P2;Temp;Humidity;BMP_temperature;BMP_pressure;BME280_temperature;BME280_humidity;BME280_pressure;Samples;Min_cycle;Max_cycle;Signal;HPM_P1;HPM_P2
2022/10/10 00:01:40;;;;;;;;;;;;;;;8.27;65.64;100504.00;10040220;29;20056;-78
2022/10/10 00:06:44;;;;;;;3.45;1.85;;;;;;;8.20;65.54;100505.38;10041452;29;19928;-78
2022/10/10 00:11:47;;;;;;;8.13;1.98;;;;;;;8.13;65.69;100491.59;10034318;29;20062;-79
2022/10/10 00:16:50;;;;;;;4.28;2.10;;;;;;;8.12;65.97;100490.72;10040447;29;20045;-78
2022/10/10 00:21:53;;;;;;;;;;;;;;;8.10;65.83;100489.97;10049694;29;20045;-78
2022/10/10 00:26:56;;;;;;;5.28;2.22;;;;;;;8.12;65.95;100484.53;10035036;29;19982;-78
2022/10/10 00:31:59;;;;;;;3.85;2.00;;;;;;;8.11;66.05;100485.47;10039961;29;20095;-79
2022/10/10 00:37:03;;;;;;;;;;;;;;;8.05;66.23;100475.19;10040371;29;20058;-78
2022/10/10 00:42:06;;;;;;;3.80;2.00;;;;;;;8.04;66.24;100473.50;10041496;29;19934;-78
2022/10/10 00:47:09;;;;;;;4.10;2.47;;;;;;;8.04;66.09;100468.16;10036984;29;20077;-78
2022/10/10 00:52:14;;;;;;;4.78;2.08;;;;;;;8.04;66.04;100471.69;10047820;29;20044;-79
2022/10/10 00:57:16;;;;;;;4.65;2.53;;;;;;;8.03;66.01;100471.78;10053203;29;20064;-78
2022/10/10 01:02:19;;;;;;;;;;;;;;;7.94;66.15;100467.91;10030164;29;20046;-78
2022/10/10 01:07:27;;;;;;;3.28;2.20;;;;;;;7.92;66.25;100459.97;10051218;29;19931;-78
2022/10/10 01:12:37;;;;;;;6.70;2.35;;;;;;;7.83;66.28;100457.09;10043547;29;20061;-78
2022/10/10 01:17:46;;;;;;;4.43;2.22;;;;;;;7.76;66.77;100456.63;10055879;29;20049;-78
2022/10/10 01:23:02;;;;;;;7.28;3.03;;;;;;;7.68;67.03;100459.00;10056473;29;20060;-78
2022/10/10 01:28:19;;;;;;;5.60;2.03;;;;;;;7.62;67.14;100456.72;10047277;29;20068;-79
2022/10/10 01:33:29;;;;;;;5.45;2.38;;;;;;;7.62;67.45;100448.72;10046348;29;20076;-78
2022/10/10 01:38:38;;;;;;;3.03;2.33;;;;;;;7.51;67.58;100438.72;10045026;29;20083;-79
2022/10/10 01:43:42;;;;;;;7.82;2.22;;;;;;;7.49;67.77;100438.84;10051673;29;20065;-78
2022/10/10 01:48:49;;;;;;;9.02;2.58;;;;;;;7.44;67.95;100435.63;10044862;29;20605;-79
2022/10/10 01:54:01;;;;;;;7.40;2.40;;;;;;;7.43;68.27;100441.06;10038992;29;20061;-78
2022/10/10 01:59:14;;;;;;;3.43;1.87;;;;;;;7.42;68.29;100426.84;10037820;29;20065;-78
2022/10/10 02:04:22;;;;;;;2.97;2.33;;;;;;;7.43;68.33;100423.25;10027878;29;20063;-78
2022/10/10 02:09:31;;;;;;;2.70;2.17;;;;;;;7.44;68.60;100416.91;10008324;29;20527;-78
2022/10/10 02:14:40;;;;;;;4.32;2.50;;;;;;;7.47;68.40;100414.03;10051350;29;20053;-78
2022/10/10 02:19:48;;;;;;;4.43;2.50;;;;;;;7.56;68.13;100414.38;10028798;29;20401;-78
2022/10/10 02:24:52;;;;;;;4.15;2.35;;;;;;;7.58;68.07;100407.97;9997565;29;20049;-78
2022/10/10 02:29:59;;;;;;;7.03;2.60;;;;;;;7.66;67.80;100410.97;10045977;29;20060;-79
2022/10/10 02:35:08;;;;;;;5.18;2.95;;;;;;;7.64;68.15;100412.88;10037250;29;20049;-79
2022/10/10 02:40:14;;;;;;;3.17;2.67;;;;;;;7.80;67.54;100402.00;10035207;29;20200;-79
2022/10/10 02:45:19;;;;;;;6.93;3.40;;;;;;;7.92;67.25;100397.59;10032777;29;20048;-77
2022/10/10 02:50:23;;;;;;;3.17;2.40;;;;;;;7.98;66.91;100390.97;10044063;29;20530;-78
2022/10/10 02:55:26;;;;;;;3.53;2.45;;;;;;;7.98;66.98;100386.50;10044319;29;20064;-77
2022/10/10 03:00:30;;;;;;;3.63;3.00;;;;;;;7.98;66.83;100388.28;10053198;29;20427;-78
2022/10/10 03:05:33;;;;;;;4.28;2.35;;;;;;;7.99;66.60;100379.34;10026938;29;20529;-78
2022/10/10 03:10:37;;;;;;;7.32;2.50;;;;;;;7.98;66.59;100380.28;10041192;29;20400;-78
2022/10/10 03:15:41;;;;;;;7.40;3.03;;;;;;;7.87;66.79;100375.66;10044198;29;20649;-78
2022/10/10 03:20:45;;;;;;;5.55;2.70;;;;;;;7.79;67.17;100376.22;10031341;29;20045;-77
2022/10/10 03:25:48;;;;;;;3.58;2.67;;;;;;;7.71;67.25;100373.25;10035908;29;20093;-78
2022/10/10 03:30:52;;;;;;;2.90;2.50;;;;;;;7.48;67.58;100372.13;10025741;29;20073;-78
2022/10/10 03:35:55;;;;;;;3.20;2.38;;;;;;;7.38;67.88;100373.72;10045515;29;20064;-78
2022/10/10 03:40:58;;;;;;;;;;;;;;;7.25;68.23;100365.69;10036253;29;20048;-77
2022/10/10 03:46:02;;;;;;;2.85;2.53;;;;;;;7.15;68.50;100362.75;10020302;29;19927;-77
2022/10/10 03:51:05;;;;;;;8.50;2.88;;;;;;;7.12;69.00;100362.97;10002433;29;20048;-78
2022/10/10 03:56:08;;;;;;;4.88;2.90;;;;;;;7.15;69.19;100352.06;10052242;29;20179;-77
2022/10/10 04:01:12;;;;;;;4.43;2.72;;;;;;;7.15;69.52;100348.53;10038150;29;20057;-78
2022/10/10 04:06:16;;;;;;;4.20;3.25;;;;;;;7.21;69.17;100348.13;9987198;29;20064;-78
2022/10/10 04:11:18;;;;;;;5.88;3.15;;;;;;;7.27;69.26;100339.72;10044974;29;20053;-77
2022/10/10 04:16:22;;;;;;;;;;;;;;;7.25;69.37;100345.16;9991124;29;20674;-78
2022/10/10 04:21:25;;;;;;;6.03;3.42;;;;;;;7.40;68.63;100334.38;10040414;29;20063;-78
2022/10/10 04:26:28;;;;;;;5.82;2.88;;;;;;;7.39;68.50;100336.19;10022992;29;20053;-78
2022/10/10 04:31:32;;;;;;;5.82;3.03;;;;;;;7.32;68.39;100337.56;10057004;29;20080;-79
2022/10/10 04:36:35;;;;;;;4.80;2.75;;;;;;;7.21;68.43;100326.75;10042947;29;20057;-80
2022/10/10 04:41:38;;;;;;;4.53;2.70;;;;;;;7.12;68.62;100324.72;10035270;29;20057;-77
2022/10/10 04:46:42;;;;;;;;;;;;;;;7.04;68.78;100323.41;10034418;29;20057;-80
2022/10/10 04:51:45;;;;;;;3.40;3.03;;;;;;;6.94;68.63;100311.66;10049720;29;19950;-80
2022/10/10 04:56:47;;;;;;;;;;;;;;;6.87;69.20;100314.78;10035991;29;20057;-77
2022/10/10 05:01:51;;;;;;;5.05;2.97;;;;;;;6.81;69.46;100316.06;10057624;29;19959;-79
2022/10/10 05:06:54;;;;;;;4.32;2.75;;;;;;;6.85;69.54;100315.75;10030925;29;20046;-79
2022/10/10 05:11:57;;;;;;;4.47;3.05;;;;;;;6.91;69.78;100319.00;10051223;29;20472;-80
2022/10/10 05:17:01;;;;;;;;;;;;;;;6.91;70.04;100317.19;10027638;29;20068;-79
2022/10/10 05:22:04;;;;;;;5.85;3.00;;;;;;;6.95;70.17;100316.03;10029146;29;20322;-79
2022/10/10 05:27:06;;;;;;;;;;;;;;;6.98;70.04;100313.16;10057441;29;20048;-79
2022/10/10 05:32:11;;;;;;;9.57;3.22;;;;;;;6.88;70.32;100321.88;10036904;29;19928;-79
2022/10/10 05:37:13;;;;;;;3.53;2.88;;;;;;;6.90;70.21;100311.94;10013886;29;20063;-80
2022/10/10 05:42:16;;;;;;;6.68;3.90;;;;;;;6.82;70.59;100318.63;10041923;29;20458;-80
2022/10/10 05:47:20;;;;;;;6.65;3.05;;;;;;;6.80;70.82;100312.53;10037452;29;20084;-78
2022/10/10 05:52:30;;;;;;;5.55;3.30;;;;;;;6.84;70.58;100305.19;10013787;29;20056;-79
2022/10/10 05:57:32;;;;;;;7.32;3.85;;;;;;;6.84;70.65;100308.69;10039956;29;21256;-78
2022/10/10 06:02:36;;;;;;;3.58;2.65;;;;;;;6.89;70.58;100315.59;10054093;29;20057;-78
2022/10/10 06:07:39;;;;;;;6.80;3.50;;;;;;;6.93;70.56;100315.25;10031771;29;20072;-79
2022/10/10 06:13:02;;;;;;;5.15;3.40;;;;;;;7.35;69.74;100309.78;10048467;29;20058;-80
2022/10/10 06:18:07;;;;;;;3.70;3.08;;;;;;;7.62;68.79;100318.56;10037810;29;20134;-80
2022/10/10 06:23:10;;;;;;;7.50;3.20;;;;;;;7.82;67.84;100319.00;10061742;29;20049;-81
2022/10/10 06:28:13;;;;;;;;;;;;;;;7.99;67.16;100320.47;10047230;29;20054;-81
2022/10/10 06:33:18;;;;;;;8.88;3.20;;;;;;;8.28;66.76;100316.56;10059156;29;20750;-81
2022/10/10 06:38:21;;;;;;;6.65;3.22;;;;;;;8.52;65.54;100318.44;10039883;29;20101;-79
2022/10/10 06:43:23;;;;;;;;;;;;;;;8.77;64.75;100318.31;10038963;29;20057;-80
2022/10/10 06:48:30;;;;;;;4.43;3.08;;;;;;;9.04;64.24;100320.75;10077914;29;19927;-80
2022/10/10 06:53:33;;;;;;;5.05;3.25;;;;;;;9.36;63.31;100330.00;10029711;29;20057;-80
2022/10/10 06:58:36;;;;;;;4.70;3.30;;;;;;;9.80;62.84;100325.69;10029173;29;20056;-81
2022/10/10 07:03:40;;;;;;;;;;;;;;;10.02;61.50;100322.19;10040898;29;20051;-80
2022/10/10 07:08:43;;;;;;;8.43;3.22;;;;;;;10.25;60.75;100315.81;10043994;29;19944;-80
2022/10/10 07:13:46;;;;;;;3.28;2.97;;;;;;;10.65;60.38;100299.16;10052553;29;20189;-79
2022/10/10 07:18:50;;;;;;;7.50;2.58;;;;;;;11.01;59.33;100303.28;10044316;29;20061;-80
2022/10/10 07:23:53;;;;;;;7.20;3.30;;;;;;;11.21;58.55;100300.75;10038129;29;20079;-82
2022/10/10 07:28:56;;;;;;;5.10;3.08;;;;;;;11.47;58.16;100312.00;10059288;29;20703;-80
2022/10/10 07:34:00;;;;;;;4.22;3.13;;;;;;;11.71;57.25;100307.19;10056623;29;20049;-81
2022/10/10 07:39:03;;;;;;;5.53;2.83;;;;;;;11.90;57.14;100300.16;10050932;29;20053;-82
2022/10/10 07:44:06;;;;;;;4.47;3.10;;;;;;;12.26;57.39;100298.75;10058536;29;20723;-79
2022/10/10 07:49:10;;;;;;;;;;;;;;;12.30;56.40;100283.19;10031367;29;20053;-81
2022/10/10 07:54:13;;;;;;;8.48;3.88;;;;;;;12.57;55.93;100296.88;10047842;29;19931;-80
2022/10/10 07:59:15;;;;;;;8.20;2.92;;;;;;;13.11;54.79;100309.94;10038954;29;20525;-82
2022/10/10 08:04:20;;;;;;;5.38;2.85;;;;;;;13.25;54.66;100309.53;10059082;29;20049;-80
2022/10/10 08:09:24;;;;;;;5.43;3.33;;;;;;;13.76;53.40;100307.44;10036408;29;20056;-80
2022/10/10 08:14:27;;;;;;;7.38;3.30;;;;;;;13.77;53.40;100301.91;10043091;29;20181;-80
2022/10/10 08:19:31;;;;;;;6.88;2.95;;;;;;;14.43;53.13;100300.09;10024607;29;20049;-79
2022/10/10 08:24:34;;;;;;;4.53;2.67;;;;;;;14.58;51.93;100288.59;10029212;29;20057;-79
2022/10/10 08:29:36;;;;;;;5.25;2.88;;;;;;;14.21;52.75;100287.81;10021232;29;20061;-80
2022/10/10 08:34:41;;;;;;;6.07;3.03;;;;;;;14.65;52.89;100277.19;10033853;29;20057;-80
2022/10/10 08:39:43;;;;;;;5.80;2.85;;;;;;;14.87;52.56;100276.72;10021292;29;20432;-79
2022/10/10 08:44:51;;;;;;;5.45;2.75;;;;;;;15.10;51.93;100278.94;10023026;29;20049;-79
2022/10/10 08:50:00;;;;;;;5.15;2.95;;;;;;;15.58;51.46;100278.47;10028771;29;20516;-79
2022/10/10 08:55:11;;;;;;;6.07;3.22;;;;;;;15.90;50.61;100283.22;10028014;29;20045;-80
2022/10/10 09:00:18;;;;;;;5.63;3.10;;;;;;;16.69;49.61;100274.88;10043787;29;20053;-79
2022/10/10 09:05:35;;;;;;;3.92;3.03;;;;;;;17.04;50.05;100268.31;10038195;29;20057;-80
2022/10/10 09:10:49;;;;;;;4.97;3.00;;;;;;;16.95;49.84;100283.75;10023310;29;20050;-79
2022/10/10 09:15:57;;;;;;;9.65;3.00;;;;;;;17.11;49.49;100272.03;10034212;29;20696;-80
2022/10/10 09:21:08;;;;;;;6.38;2.78;;;;;;;16.79;50.55;100279.16;10035451;29;20045;-80
2022/10/10 09:26:13;;;;;;;13.82;3.95;;;;;;;16.55;51.78;100276.38;10034509;29;20075;-80
2022/10/10 09:31:18;;;;;;;5.85;2.60;;;;;;;16.36;52.04;100274.81;10042510;29;21469;-79
2022/10/10 09:36:27;;;;;;;10.25;3.90;;;;;;;16.65;52.44;100258.13;10039752;29;20105;-79
2022/10/10 09:41:35;;;;;;;4.88;3.22;;;;;;;16.32;53.27;100259.91;10039369;29;20057;-80
2022/10/10 09:46:38;;;;;;;5.63;2.75;;;;;;;15.80;54.83;100287.09;10047163;29;20057;-80
2022/10/10 09:51:43;;;;;;;8.45;3.30;;;;;;;15.85;54.52;100276.59;10035902;29;20061;-79
2022/10/10 09:56:50;;;;;;;4.85;3.17;;;;;;;15.83;54.71;100286.75;10004664;29;20133;-79
2022/10/10 10:02:02;;;;;;;7.75;3.53;;;;;;;15.71;54.26;100294.28;10044939;29;20046;-80
2022/10/10 10:07:17;;;;;;;5.27;3.57;;;;;;;16.45;53.02;100286.53;10057300;29;20057;-79
2022/10/10 10:12:23;;;;;;;7.30;3.28;;;;;;;16.49;52.94;100290.63;10033172;29;20065;-79
2022/10/10 10:17:26;;;;;;;6.10;3.17;;;;;;;16.55;53.04;100292.66;10041592;29;20053;-80
2022/10/10 10:22:37;;;;;;;6.50;3.15;;;;;;;16.80;52.87;100288.97;10048316;29;20049;-79
2022/10/10 10:27:40;;;;;;;5.75;3.58;;;;;;;17.33;51.03;100297.66;10048535;29;20053;-80
2022/10/10 10:32:53;;;;;;;7.55;3.67;;;;;;;17.16;50.38;100291.41;10044145;29;21175;-79
2022/10/10 10:38:18;;;;;;;5.80;3.30;;;;;;;18.21;49.96;100295.97;10032200;29;20163;-78
2022/10/10 10:43:37;;;;;;;7.20;3.13;;;;;;;19.80;46.63;100289.88;10030869;29;20045;-79
2022/10/10 10:48:44;;;;;;;8.90;2.55;;;;;;;19.50;44.98;100298.03;10032165;29;20511;-80
2022/10/10 10:53:54;;;;;;;7.68;2.65;;;;;;;19.30;44.85;100297.66;10044599;29;20058;-79
2022/10/10 10:59:11;;;;;;;4.35;2.25;;;;;;;19.27;45.83;100292.59;10013792;29;20045;-79
2022/10/10 11:04:53;;;;;;;5.45;2.60;;;;;;;21.05;42.48;100288.97;10035676;29;20065;-79
2022/10/10 11:10:24;;;;;;;5.03;2.23;;;;;;;21.19;41.21;100277.13;10040752;29;20067;-79
2022/10/10 11:15:35;;;;;;;6.20;1.80;;;;;;;21.76;40.30;100289.78;10039291;29;20124;-80
2022/10/10 11:21:04;;;;;;;4.18;2.63;;;;;;;20.11;41.96;100297.91;10037191;29;20052;-80
2022/10/10 11:26:16;;;;;;;8.15;1.98;;;;;;;19.92;43.58;100285.69;10032568;29;20256;-80
2022/10/10 11:31:23;;;;;;;3.60;1.87;;;;;;;20.08;42.69;100277.31;10040170;29;20132;-80
2022/10/10 11:36:30;;;;;;;6.10;2.28;;;;;;;19.95;42.26;100277.13;10034191;29;20056;-81
2022/10/10 11:41:37;;;;;;;4.25;2.00;;;;;;;18.97;43.74;100273.44;10054155;29;20050;-78
2022/10/10 11:46:45;;;;;;;6.45;2.00;;;;;;;19.13;43.50;100272.47;10043368;29;20052;-77
2022/10/10 11:52:03;;;;;;;8.30;2.10;;;;;;;19.43;43.76;100272.53;10051444;29;20551;-79
2022/10/10 11:57:36;;;;;;;7.07;1.63;;;;;;;19.71;42.57;100270.06;10044043;29;20060;-78
2022/10/10 12:02:41;;;;;;;5.13;1.50;;;;;;;19.43;42.41;100275.25;10023981;29;20198;-78
2022/10/10 12:07:59;;;;;;;6.07;1.88;;;;;;;19.83;42.43;100265.00;10030999;29;20686;-79
2022/10/10 12:13:24;;;;;;;5.30;1.80;;;;;;;18.45;43.82;100249.63;10031340;29;20053;-79
2022/10/10 12:18:37;;;;;;;3.97;1.95;;;;;;;18.65;43.96;100258.19;10042999;29;20649;-81
2022/10/10 12:23:42;;;;;;;6.72;2.28;;;;;;;20.51;41.92;100246.59;10037207;29;20056;-79
2022/10/10 12:29:04;;;;;;;6.20;1.95;;;;;;;20.90;40.31;100261.69;10026119;29;20063;-78
2022/10/10 12:34:15;;;;;;;6.25;2.00;;;;;;;20.58;40.59;100243.94;10013780;29;21243;-81
2022/10/10 12:39:36;;;;;;;7.10;2.00;;;;;;;19.81;42.90;100251.56;10040168;29;20571;-79
2022/10/10 12:44:46;;;;;;;9.88;3.25;;;;;;;19.78;42.43;100245.66;10037906;29;20061;-80
2022/10/10 12:49:49;;;;;;;7.65;2.53;;;;;;;20.65;40.38;100247.56;10029742;29;20057;-80
2022/10/10 12:54:54;;;;;;;6.15;1.60;;;;;;;20.15;41.47;100246.56;10033754;29;20143;-80
2022/10/10 13:00:03;;;;;;;7.65;1.60;;;;;;;19.35;42.47;100259.00;10053303;29;20176;-79
2022/10/10 13:05:10;;;;;;;9.32;2.10;;;;;;;18.82;44.72;100252.66;10043746;29;20512;-80
2022/10/10 13:10:22;;;;;;;4.57;2.10;;;;;;;17.78;45.83;100251.94;10064461;29;20108;-79
2022/10/10 13:15:26;;;;;;;6.13;2.00;;;;;;;18.60;44.84;100251.59;10074280;29;20148;-78
2022/10/10 13:20:34;;;;;;;5.13;1.90;;;;;;;18.47;45.45;100263.88;10048432;29;20057;-80
2022/10/10 13:25:39;;;;;;;3.72;1.55;;;;;;;18.46;43.44;100261.38;10052401;29;20044;-81
2022/10/10 13:30:44;;;;;;;8.88;2.17;;;;;;;18.84;43.82;100267.78;10066631;29;20060;-79
2022/10/10 13:35:48;;;;;;;8.50;3.20;;;;;;;19.14;43.69;100267.84;10064650;29;20079;-80
2022/10/10 13:40:52;;;;;;;6.53;2.28;;;;;;;19.48;43.50;100258.38;10028635;29;20430;-80
2022/10/10 13:45:58;;;;;;;6.38;1.90;;;;;;;19.46;42.95;100267.56;10051626;29;20057;-79
2022/10/10 13:51:04;;;;;;;4.93;2.20;;;;;;;19.17;44.92;100267.50;10047416;29;20727;-79
2022/10/10 13:56:12;;;;;;;5.00;2.28;;;;;;;18.85;45.91;100271.34;10030276;29;20757;-81
2022/10/10 14:01:30;;;;;;;5.88;2.00;;;;;;;18.84;46.16;100269.63;10053505;29;20053;-79
2022/10/10 14:06:34;;;;;;;6.78;1.40;;;;;;;18.50;44.00;100289.88;10055578;29;20060;-79
2022/10/10 14:11:37;;;;;;;6.53;1.85;;;;;;;17.84;43.95;100281.97;10041766;29;20068;-79
2022/10/10 14:16:41;;;;;;;4.30;1.77;;;;;;;17.09;45.21;100294.94;10033346;29;20045;-80
2022/10/10 14:21:44;;;;;;;5.22;1.73;;;;;;;17.29;44.91;100293.63;10020574;29;20053;-80
2022/10/10 14:26:47;;;;;;;9.38;1.73;;;;;;;17.34;45.22;100302.09;10032905;29;20067;-79
2022/10/10 14:31:51;;;;;;;6.57;1.55;;;;;;;17.08;44.70;100299.50;10041688;29;21251;-78
2022/10/10 14:36:54;;;;;;;6.53;1.65;;;;;;;16.75;45.44;100309.47;10047628;29;20048;-79
2022/10/10 14:41:57;;;;;;;9.07;1.73;;;;;;;16.78;46.25;100323.56;10033729;29;20053;-80
2022/10/10 14:47:01;;;;;;;8.13;2.17;;;;;;;17.11;46.21;100315.44;10020858;29;20052;-78
2022/10/10 14:52:04;;;;;;;4.95;1.73;;;;;;;16.75;46.76;100323.03;10031967;29;20139;-77
2022/10/10 14:57:07;;;;;;;4.88;2.10;;;;;;;17.35;46.25;100313.78;10013490;29;20080;-77
2022/10/10 15:02:13;;;;;;;2.92;1.92;;;;;;;17.19;46.69;100317.34;10036948;29;20057;-76
2022/10/10 15:07:16;;;;;;;4.95;2.00;;;;;;;16.96;47.51;100319.84;10023276;29;20053;-78
2022/10/10 15:12:19;;;;;;;5.90;2.42;;;;;;;16.45;48.02;100328.03;10050911;29;20052;-77
2022/10/10 15:17:25;;;;;;;8.05;2.83;;;;;;;16.95;47.56;100348.88;10051632;29;20183;-78
2022/10/10 15:22:29;;;;;;;5.60;1.90;;;;;;;16.43;49.02;100343.63;10059063;29;20139;-78
2022/10/10 15:27:32;;;;;;;4.68;1.95;;;;;;;16.39;48.91;100357.66;10021484;29;20206;-77
2022/10/10 15:32:39;;;;;;;5.43;2.45;;;;;;;16.36;48.79;100356.97;10021607;29;20056;-78
2022/10/10 15:37:42;;;;;;;3.60;2.05;;;;;;;16.42;48.64;100371.72;10028720;29;20053;-77
2022/10/10 15:42:45;;;;;;;8.63;2.63;;;;;;;16.50;48.76;100369.06;10040553;29;20068;-77
2022/10/10 15:47:49;;;;;;;6.75;2.00;;;;;;;16.27;49.02;100374.22;10058156;29;20057;-76
2022/10/10 15:52:52;;;;;;;4.72;2.40;;;;;;;16.03;49.92;100395.72;10033602;29;20049;-77
2022/10/10 15:57:55;;;;;;;8.07;2.33;;;;;;;15.85;50.63;100396.63;10030830;29;20061;-78
2022/10/10 16:02:59;;;;;;;8.20;2.60;;;;;;;16.03;50.32;100401.16;10031301;29;20060;-77
2022/10/10 16:08:01;;;;;;;5.07;2.38;;;;;;;15.76;51.58;100404.84;10033070;29;20077;-78
2022/10/10 16:13:04;;;;;;;5.85;2.60;;;;;;;15.13;55.89;100414.72;10007880;29;20056;-79
2022/10/10 16:18:09;;;;;;;10.20;3.17;;;;;;;14.90;59.70;100430.56;10042075;29;20412;-79
2022/10/10 16:23:12;;;;;;;3.28;2.28;;;;;;;14.62;59.60;100424.31;10041035;29;20115;-79
2022/10/10 16:28:14;;;;;;;8.57;2.53;;;;;;;14.49;58.95;100446.25;10044142;29;20109;-78
2022/10/10 16:33:19;;;;;;;5.03;2.70;;;;;;;14.63;58.80;100461.16;10020519;29;20718;-78
2022/10/10 16:38:21;;;;;;;9.45;2.50;;;;;;;14.60;58.16;100461.44;10039053;29;20053;-79
2022/10/10 16:43:24;;;;;;;5.97;2.65;;;;;;;14.54;59.54;100473.69;10021147;29;20713;-79
2022/10/10 16:48:30;;;;;;;6.20;3.28;;;;;;;14.70;61.92;100493.81;10052006;29;20079;-78
2022/10/10 16:53:33;;;;;;;8.35;3.30;;;;;;;13.55;68.61;100510.03;10026003;29;20046;-78
2022/10/10 16:58:38;;;;;;;6.53;4.05;;;;;;;13.17;72.45;100541.34;10046643;29;20057;-77
2022/10/10 17:03:42;;;;;;;12.10;5.18;;;;;;;13.04;75.28;100537.03;10040123;29;20423;-79
2022/10/10 17:08:46;;;;;;;14.80;5.47;;;;;;;12.64;78.62;100549.63;10036894;29;20057;-79
2022/10/10 17:13:50;;;;;;;11.60;5.78;;;;;;;12.88;79.17;100557.41;10025390;29;20049;-78
2022/10/10 17:18:55;;;;;;;11.80;4.93;;;;;;;12.38;80.94;100561.66;10038094;29;20081;-78
2022/10/10 17:23:58;;;;;;;9.32;4.93;;;;;;;12.25;81.88;100576.28;10028975;29;20045;-77
2022/10/10 17:29:51;;;;;;;11.73;5.30;;;;;;;12.56;81.71;100583.50;11173006;23;20073;-78
2022/10/10 17:34:55;;;;;;;9.18;5.25;;;;;;;12.30;82.32;100580.31;10097814;29;20053;-78
2022/10/10 17:39:58;;;;;;;14.20;5.63;;;;;;;12.52;82.49;100584.72;10095135;29;20046;-78
2022/10/10 17:45:01;;;;;;;6.38;4.63;;;;;;;12.37;82.25;100602.22;10094468;29;20419;-78
2022/10/10 17:50:07;;;;;;;12.00;5.97;;;;;;;12.43;82.84;100606.22;10090238;23;20054;-76
2022/10/10 17:55:10;;;;;;;12.18;5.93;;;;;;;12.19;83.73;100623.44;10097863;29;20708;-77
2022/10/10 18:00:14;;;;;;;12.63;6.07;;;;;;;12.35;82.80;100631.97;10057077;29;20045;-76
2022/10/10 18:05:18;;;;;;;12.27;7.10;;;;;;;12.25;83.72;100647.16;10097714;29;20052;-76
2022/10/10 18:10:21;;;;;;;13.13;8.25;;;;;;;12.13;84.71;100649.06;10062481;29;20114;-76
2022/10/10 18:15:23;;;;;;;10.50;7.68;;;;;;;11.74;86.15;100677.44;10061935;29;20129;-75
2022/10/10 18:20:28;;;;;;;12.77;6.15;;;;;;;12.62;82.21;100689.91;10060385;29;20124;-76
2022/10/10 18:25:31;;;;;;;7.95;4.18;;;;;;;12.67;79.90;100698.47;10075579;29;20037;-76
2022/10/10 18:30:33;;;;;;;11.25;3.00;;;;;;;12.54;79.18;100711.25;10064617;29;20431;-76
2022/10/10 18:35:41;;;;;;;15.13;3.08;;;;;;;12.38;78.53;100725.16;10074362;29;20125;-76
2022/10/10 18:40:44;;;;;;;7.93;2.35;;;;;;;12.27;78.00;100739.47;10068468;29;20140;-76
2022/10/10 18:45:48;;;;;;;18.00;3.92;;;;;;;12.15;77.43;100743.19;10068049;29;20124;-76
2022/10/10 18:50:52;;;;;;;12.85;2.55;;;;;;;11.95;76.25;100759.09;10082851;29;20145;-76
2022/10/10 18:55:56;;;;;;;14.45;2.53;;;;;;;11.88;75.96;100765.13;10088520;29;20475;-76
2022/10/10 19:00:59;;;;;;;18.90;3.13;;;;;;;11.68;75.48;100775.66;10072666;29;20148;-76
2022/10/10 19:06:06;;;;;;;18.50;2.47;;;;;;;11.99;74.96;100780.41;10083546;29;20037;-75
2022/10/10 19:11:19;;;;;;;15.57;2.25;;;;;;;11.54;75.19;100785.78;10066803;29;20126;-75
2022/10/10 19:16:22;;;;;;;;;;;;;;;11.78;75.88;100800.00;10054549;29;20456;-76
2022/10/10 19:21:27;;;;;;;17.02;2.47;;;;;;;11.43;75.90;100803.63;10082863;29;19967;-77
2022/10/10 19:26:32;;;;;;;15.73;2.40;;;;;;;11.44;76.16;100808.03;10052113;29;20057;-77
2022/10/10 19:31:36;;;;;;;10.82;2.28;;;;;;;10.93;77.28;100818.25;10065797;29;20049;-77
2022/10/10 19:36:40;;;;;;;17.92;2.40;;;;;;;11.12;76.68;100828.47;10036225;29;20049;-76
2022/10/10 19:41:44;;;;;;;14.15;2.33;;;;;;;11.17;76.49;100837.91;10046000;29;20076;-77
2022/10/10 19:46:46;;;;;;;;;;;;;;;10.83;76.60;100844.94;10021417;29;20463;-76
2022/10/10 19:51:52;;;;;;;12.98;2.90;;;;;;;10.83;76.81;100853.88;10014634;29;19934;-76
2022/10/10 19:56:56;;;;;;;17.05;2.35;;;;;;;10.69;77.13;100867.47;10026382;29;20048;-76
2022/10/10 20:01:58;;;;;;;15.43;2.33;;;;;;;10.53;77.61;100870.44;10021872;29;20041;-76
2022/10/10 20:07:02;;;;;;;9.93;2.40;;;;;;;10.60;77.42;100890.50;10031149;29;20054;-76
2022/10/10 20:12:07;;;;;;;20.17;2.72;;;;;;;10.42;77.68;100885.63;9999054;29;20531;-76
2022/10/10 20:17:11;;;;;;;13.80;2.05;;;;;;;10.29;78.05;100904.47;9998045;29;20060;-77
2022/10/10 20:22:15;;;;;;;15.40;2.60;;;;;;;10.31;78.20;100905.19;10009068;29;20053;-77
2022/10/10 20:27:18;;;;;;;13.27;2.25;;;;;;;10.28;78.17;100916.16;10022922;29;20053;-77
2022/10/10 20:32:21;;;;;;;;;;;;;;;10.07;78.42;100923.91;10053671;29;20060;-77
2022/10/10 20:37:25;;;;;;;12.07;2.42;;;;;;;10.03;78.84;100927.78;10024677;29;19928;-77
2022/10/10 20:42:27;;;;;;;20.48;3.63;;;;;;;9.86;78.60;100945.91;10007900;29;21778;-77
2022/10/10 20:47:30;;;;;;;;;;;;;;;9.84;79.12;100946.94;10018407;29;20057;-77
2022/10/10 20:52:34;;;;;;;14.35;2.80;;;;;;;9.83;79.06;100950.59;10004776;29;20043;-77
2022/10/10 20:57:37;;;;;;;15.80;2.72;;;;;;;9.77;79.74;100957.25;9999381;29;20080;-78
2022/10/10 21:02:40;;;;;;;;;;;;;;;9.55;79.65;100962.38;9997827;29;20089;-77
2022/10/10 21:07:44;;;;;;;20.02;4.28;;;;;;;9.44;79.89;100974.66;9990977;29;19939;-77
2022/10/10 21:12:47;;;;;;;14.07;2.38;;;;;;;9.19;81.00;100988.00;10007146;29;20050;-76
2022/10/10 21:17:50;;;;;;;;;;;;;;;9.36;79.88;100986.88;9982521;29;20075;-77
2022/10/10 21:22:54;;;;;;;15.57;2.70;;;;;;;9.15;80.27;100997.16;10010104;29;19928;-77
2022/10/10 21:27:57;;;;;;;15.48;3.53;;;;;;;9.13;79.60;100999.94;9992747;29;20172;-77
2022/10/10 21:33:00;;;;;;;;;;;;;;;9.08;79.69;100999.41;10023813;29;20681;-77
2022/10/10 21:38:04;;;;;;;10.20;2.33;;;;;;;8.77;80.70;101012.06;10015207;29;20015;-77
2022/10/10 21:43:07;;;;;;;11.35;2.58;;;;;;;9.13;78.90;101021.38;9970338;29;20052;-76
2022/10/10 21:48:10;;;;;;;;;;;;;;;9.01;79.36;101030.22;10022310;29;20523;-77
2022/10/10 21:53:14;;;;;;;14.10;2.50;;;;;;;9.00;79.04;101021.34;9991037;29;20015;-77
2022/10/10 21:58:17;;;;;;;11.65;3.40;;;;;;;8.53;80.63;101040.41;10010992;29;20148;-77
2022/10/10 22:03:20;;;;;;;;;;;;;;;8.65;80.29;101045.00;10011132;29;20063;-77
2022/10/10 22:08:24;;;;;;;12.02;2.70;;;;;;;8.64;79.44;101043.28;10000119;29;20302;-76
2022/10/10 22:13:27;;;;;;;12.13;2.45;;;;;;;8.56;79.92;101051.78;10026647;29;20068;-76
2022/10/10 22:18:30;;;;;;;18.30;3.65;;;;;;;8.44;81.09;101057.00;10060962;29;20049;-77
2022/10/10 22:23:35;;;;;;;15.88;2.97;;;;;;;8.67;80.65;101058.31;10060333;29;20045;-77
2022/10/10 22:28:38;;;;;;;12.85;3.92;;;;;;;8.49;81.70;101065.66;10047754;29;20049;-76
2022/10/10 22:33:41;;;;;;;21.25;4.13;;;;;;;8.48;81.77;101078.19;10047668;29;20067;-76
2022/10/10 22:38:46;;;;;;;16.55;4.60;;;;;;;8.51;81.74;101086.03;10115813;29;20081;-77
2022/10/10 22:43:49;;;;;;;21.30;4.65;;;;;;;8.50;81.63;101083.44;10087077;29;20557;-76
2022/10/10 22:48:52;;;;;;;18.70;4.38;;;;;;;8.54;81.47;101085.84;10020416;29;20144;-76
2022/10/10 22:53:56;;;;;;;12.20;4.32;;;;;;;8.27;82.62;101077.63;10032484;29;20049;-76
2022/10/10 22:58:59;;;;;;;19.98;6.10;;;;;;;8.17;83.71;101080.03;10034682;29;20859;-77
2022/10/10 23:04:08;;;;;;;;;;;;;;;8.44;82.11;101090.00;10049705;29;20049;-77
2022/10/10 23:09:13;;;;;;;16.88;5.72;;;;;;;8.40;81.51;101086.66;10034232;29;19927;-77
2022/10/10 23:14:17;;;;;;;16.30;5.88;;;;;;;8.37;82.13;101096.69;10048403;29;20057;-76
2022/10/10 23:19:20;;;;;;;20.55;7.03;;;;;;;8.40;82.36;101094.69;10024065;29;20053;-76
2022/10/10 23:24:24;;;;;;;;;;;;;;;8.29;83.05;101107.84;10027270;29;20065;-77
2022/10/10 23:29:26;;;;;;;21.83;6.50;;;;;;;8.32;83.12;101101.47;10032153;29;19934;-76
2022/10/10 23:34:29;;;;;;;;;;;;;;;8.33;83.28;101097.81;10029700;29;20064;-76
2022/10/10 23:39:33;;;;;;;14.65;5.00;;;;;;;8.26;83.65;101094.66;10036038;29;19928;-76